createdAt,value
2022-08-27T00:00:57.631Z,15.56
2022-08-27T00:03:51.661Z,15.53
2022-08-27T00:06:38.621Z,15.51
2022-08-27T00:09:12.701Z,15.47
2022-08-27T00:11:59.619Z,15.43
2022-08-27T00:14:34.694Z,15.39
2022-08-27T00:17:21.644Z,15.36
2022-08-27T00:20:01.614Z,15.37
2022-08-27T00:22:48.632Z,15.34
2022-08-27T00:25:22.822Z,15.28
2022-08-27T00:28:16.645Z,15.23
2022-08-27T00:31:03.662Z,15.18
2022-08-27T00:33:36.712Z,15.16
2022-08-27T00:36:23.637Z,15.16
2022-08-27T00:38:56.718Z,15.17
2022-08-27T00:41:45.630Z,15.17
2022-08-27T00:44:20.489Z,15.14
2022-08-27T00:47:11.641Z,15.07
2022-08-27T00:49:58.727Z,15.04
2022-08-27T00:52:59.736Z,15.05
2022-08-27T00:55:39.846Z,15.07
2022-08-27T00:58:35.646Z,15.08
2022-08-27T01:01:11.806Z,15.08
2022-08-27T01:04:02.656Z,15.06
2022-08-27T01:06:47.649Z,14.95
2022-08-27T01:09:35.652Z,14.91
2022-08-27T01:12:09.756Z,14.91
2022-08-27T01:14:56.657Z,14.93
2022-08-27T01:17:36.646Z,14.95
2022-08-27T01:20:28.659Z,14.94
2022-08-27T01:23:36.755Z,14.92
2022-08-27T01:26:24.669Z,14.82
2022-08-27T01:29:06.678Z,14.79
2022-08-27T01:32:00.659Z,14.75
2022-08-27T01:34:54.690Z,14.69
2022-08-27T01:37:49.664Z,14.64
2022-08-27T01:40:45.659Z,14.62
2022-08-27T01:43:39.675Z,14.59
2022-08-27T01:46:31.742Z,14.50
2022-08-27T01:49:04.771Z,14.44
2022-08-27T01:51:51.674Z,14.38
2022-08-27T01:54:27.757Z,14.38
2022-08-27T01:57:14.681Z,14.36
2022-08-27T01:59:48.742Z,14.37
2022-08-27T02:02:35.686Z,14.40
2022-08-27T02:05:08.741Z,14.39
2022-08-27T02:07:55.699Z,14.35
2022-08-27T02:10:43.698Z,14.31
2022-08-27T02:13:37.715Z,14.25
2022-08-27T02:16:31.703Z,14.25
2022-08-27T02:19:26.676Z,14.23
2022-08-27T02:22:13.681Z,14.15
2022-08-27T02:24:53.695Z,14.09
2022-08-27T02:27:47.697Z,14.04
2022-08-27T02:30:44.692Z,14.02
2022-08-27T02:33:31.698Z,14.02
2022-08-27T02:36:11.720Z,14.03
2022-08-27T02:38:58.684Z,14.04
2022-08-27T02:41:31.796Z,14.04
2022-08-27T02:44:18.681Z,14.04
2022-08-27T02:46:58.756Z,14.07
2022-08-27T02:49:45.702Z,14.09
2022-08-27T02:52:25.695Z,14.10
2022-08-27T02:55:13.730Z,14.09
2022-08-27T02:57:46.792Z,14.08
2022-08-27T03:00:35.718Z,14.09
2022-08-27T03:03:10.742Z,14.07
2022-08-27T03:05:57.749Z,14.04
2022-08-27T03:08:52.017Z,13.97
2022-08-27T03:11:40.696Z,13.95
2022-08-27T03:14:14.831Z,13.96
2022-08-27T03:17:01.721Z,13.94
2022-08-27T03:19:41.731Z,13.87
2022-08-27T03:22:28.732Z,13.79
2022-08-27T03:25:08.750Z,13.76
2022-08-27T03:27:55.731Z,13.80
2022-08-27T03:30:52.776Z,13.81
2022-08-27T03:33:45.736Z,13.81
2022-08-27T03:36:18.823Z,13.76
2022-08-27T03:39:05.759Z,13.71
2022-08-27T03:41:54.751Z,13.70
2022-08-27T03:44:42.742Z,13.67
2022-08-27T03:47:22.730Z,13.67
2022-08-27T03:50:11.729Z,13.69
2022-08-27T03:52:51.741Z,13.65
2022-08-27T03:55:39.742Z,13.60
2022-08-27T03:58:24.759Z,13.53
2022-08-27T04:01:19.778Z,13.47
2022-08-27T04:04:06.758Z,13.41
2022-08-27T04:06:41.008Z,13.41
2022-08-27T04:09:27.745Z,13.39
2022-08-27T04:12:03.871Z,13.43
2022-08-27T04:14:50.738Z,13.49
2022-08-27T04:17:23.869Z,13.53
2022-08-27T04:20:34.043Z,13.55
2022-08-27T04:23:12.759Z,13.58
2022-08-27T04:26:06.764Z,13.61
2022-08-27T04:29:00.741Z,13.61
2022-08-27T04:31:54.788Z,13.62
2022-08-27T04:34:48.770Z,13.59
2022-08-27T04:37:39.772Z,13.58
2022-08-27T04:40:13.946Z,13.60
2022-08-27T04:43:00.760Z,13.61
2022-08-27T04:45:33.870Z,13.60
2022-08-27T04:48:22.766Z,13.55
2022-08-27T04:50:55.908Z,13.55
2022-08-27T04:53:42.748Z,13.55
2022-08-27T04:56:23.871Z,13.51
2022-08-27T04:59:14.783Z,13.48
2022-08-27T05:01:49.935Z,13.53
2022-08-27T05:04:36.783Z,13.65
2022-08-27T05:07:10.964Z,13.82
2022-08-27T05:09:58.822Z,14.00
2022-08-27T05:12:31.898Z,14.18
2022-08-27T05:15:18.777Z,14.33
2022-08-27T05:17:53.768Z,14.49
2022-08-27T05:20:48.775Z,14.66
2022-08-27T05:23:30.805Z,14.83
2022-08-27T05:26:17.795Z,15.01
2022-08-27T05:28:51.972Z,15.15
2022-08-27T05:31:38.860Z,15.29
2022-08-27T05:34:15.417Z,15.44
2022-08-27T05:37:11.799Z,15.58
2022-08-27T05:39:44.960Z,15.76
2022-08-27T05:42:34.812Z,15.91
2022-08-27T05:45:14.968Z,16.05
2022-08-27T05:48:08.894Z,16.19
2022-08-27T05:50:55.801Z,16.33
2022-08-27T05:53:29.106Z,16.43
2022-08-27T05:56:24.818Z,16.56
2022-08-27T05:59:16.550Z,16.72
2022-08-27T06:02:04.816Z,16.88
2022-08-27T06:04:44.808Z,17.03
2022-08-27T06:07:38.790Z,17.16
2022-08-27T06:10:26.801Z,17.30
2022-08-27T06:12:59.880Z,17.43
2022-08-27T06:15:46.869Z,17.56
2022-08-27T06:18:19.905Z,17.67
2022-08-27T06:21:07.880Z,17.78
2022-08-27T06:23:41.898Z,17.88
2022-08-27T06:26:30.812Z,18.01
2022-08-27T06:29:10.057Z,18.14
2022-08-27T06:31:56.821Z,18.26
2022-08-27T06:34:31.759Z,18.39
2022-08-27T06:37:18.837Z,18.51
2022-08-27T06:39:52.064Z,18.66
2022-08-27T06:42:38.832Z,18.78
2022-08-27T06:45:20.823Z,18.91
2022-08-27T06:48:14.846Z,19.04
2022-08-27T06:51:08.836Z,19.17
2022-08-27T06:53:55.873Z,19.31
2022-08-27T06:56:36.847Z,19.43
2022-08-27T06:59:25.880Z,19.50
2022-08-27T07:02:05.923Z,19.60
2022-08-27T07:04:52.839Z,19.71
2022-08-27T07:07:37.188Z,19.85
2022-08-27T07:10:35.877Z,20.00
2022-08-27T07:13:23.880Z,20.11
2022-08-27T07:15:57.023Z,20.23
2022-08-27T07:18:39.876Z,20.30
2022-08-27T07:21:27.874Z,20.36
2022-08-27T07:24:15.878Z,20.42
2022-08-27T07:26:50.052Z,20.52
2022-08-27T07:29:36.861Z,20.65
2022-08-27T07:32:16.826Z,20.81
2022-08-27T07:35:10.869Z,20.94
2022-08-27T07:37:57.878Z,21.07
2022-08-27T07:40:37.904Z,21.23
2022-08-27T07:43:46.855Z,21.36
2022-08-27T07:46:20.041Z,21.50
2022-08-27T07:49:06.863Z,21.62
2022-08-27T07:51:46.870Z,21.75
2022-08-27T07:54:40.890Z,21.82
2022-08-27T07:57:27.878Z,21.92
2022-08-27T08:00:01.007Z,22.03
2022-08-27T08:02:51.953Z,22.11
2022-08-27T08:05:31.886Z,22.22
2022-08-27T08:08:18.878Z,22.30
2022-08-27T08:10:58.867Z,22.39
2022-08-27T08:13:52.876Z,22.45
2022-08-27T08:16:40.035Z,22.57
2022-08-27T08:19:19.902Z,22.74
2022-08-27T08:22:13.890Z,22.84
2022-08-27T08:25:00.900Z,22.91
2022-08-27T08:27:34.029Z,23.05
2022-08-27T08:30:21.884Z,23.16
2022-08-27T08:33:01.898Z,23.26
2022-08-27T08:35:48.899Z,23.35
2022-08-27T08:38:30.978Z,23.43
2022-08-27T08:41:49.897Z,23.46
2022-08-27T08:44:51.907Z,23.52
2022-08-27T08:48:02.895Z,23.59
2022-08-27T08:50:50.966Z,23.68
2022-08-27T08:54:01.914Z,23.78
2022-08-27T08:57:12.964Z,23.88
2022-08-27T09:00:18.916Z,23.95
2022-08-27T09:03:12.912Z,24.05
2022-08-27T09:06:14.963Z,24.23
2022-08-27T09:08:49.384Z,24.43
2022-08-27T09:11:56.959Z,24.54
2022-08-27T09:14:56.329Z,24.63
2022-08-27T09:17:44.977Z,24.74
2022-08-27T09:20:20.030Z,24.86
2022-08-27T09:23:15.979Z,24.96
2022-08-27T09:25:50.025Z,25.08
2022-08-27T09:28:55.915Z,25.09
2022-08-27T09:31:50.964Z,25.10
2022-08-27T09:34:46.972Z,25.16
2022-08-27T09:37:38.968Z,25.23
2022-08-27T09:40:56.976Z,25.20
2022-08-27T09:43:45.983Z,25.27
2022-08-27T09:46:38.969Z,25.42
2022-08-27T09:49:32.972Z,25.50
2022-08-27T09:52:38.972Z,25.51
2022-08-27T09:55:13.085Z,25.65
2022-08-27T09:58:01.988Z,25.74
2022-08-27T10:00:47.579Z,25.79
2022-08-27T10:03:33.998Z,25.90
2022-08-27T10:06:13.984Z,25.91
2022-08-27T10:09:07.989Z,25.81
2022-08-27T10:11:57.077Z,25.73
2022-08-27T10:14:48.966Z,25.65
2022-08-27T10:17:55.984Z,25.60
2022-08-27T10:21:15.624Z,25.54
2022-08-27T10:24:25.789Z,25.64
2022-08-27T10:27:09.647Z,25.79
2022-08-27T10:30:19.984Z,25.95
2022-08-27T10:33:25.743Z,25.96
2022-08-27T10:36:34.141Z,25.92
2022-08-27T10:40:09.762Z,25.90
2022-08-27T10:43:06.074Z,25.87
2022-08-27T10:46:11.753Z,25.85
2022-08-27T10:48:52.084Z,25.83
2022-08-27T10:51:48.009Z,25.78
2022-08-27T10:54:30.134Z,25.71
2022-08-27T10:57:53.204Z,25.67
2022-08-27T11:00:30.068Z,25.72
2022-08-27T11:03:23.027Z,25.74
2022-08-27T11:05:58.100Z,25.77
2022-08-27T11:08:48.037Z,25.83
2022-08-27T11:15:00.038Z,26.06
2022-08-27T11:17:49.029Z,26.12
2022-08-27T11:20:55.023Z,26.16
2022-08-27T11:24:02.040Z,26.21
2022-08-27T11:26:50.032Z,26.26
2022-08-27T11:30:00.208Z,26.31
2022-08-27T11:32:54.035Z,26.33
2022-08-27T11:36:04.050Z,26.35
2022-08-27T11:39:04.037Z,26.33
2022-08-27T11:42:07.065Z,26.24
2022-08-27T11:44:50.662Z,26.16
2022-08-27T11:47:38.750Z,26.06
2022-08-27T11:50:22.127Z,25.99
2022-08-27T11:53:14.038Z,25.93
2022-08-27T11:55:47.166Z,25.92
2022-08-27T11:58:52.880Z,25.88
2022-08-27T12:01:43.076Z,25.91
2022-08-27T12:04:33.171Z,25.87
2022-08-27T12:07:11.855Z,25.83
2022-08-27T12:10:27.071Z,25.77
2022-08-27T12:13:23.100Z,25.74
2022-08-27T12:16:30.115Z,25.70
2022-08-27T12:19:36.064Z,25.63
2022-08-27T12:22:16.146Z,25.61
2022-08-27T12:25:05.073Z,25.55
2022-08-27T12:27:40.127Z,25.52
2022-08-27T12:30:48.041Z,25.47
2022-08-27T12:33:56.077Z,25.41
2022-08-27T12:36:52.059Z,25.39
2022-08-27T12:39:56.135Z,25.37
2022-08-27T12:42:44.057Z,25.36
2022-08-27T12:45:26.204Z,25.34
2022-08-27T12:48:16.073Z,25.32
2022-08-27T12:50:58.083Z,25.32
2022-08-27T12:54:18.133Z,25.30
2022-08-27T12:57:30.069Z,25.27
2022-08-27T13:00:28.141Z,25.26
2022-08-27T13:03:18.085Z,25.31
2022-08-27T13:06:12.075Z,25.36
2022-08-27T13:09:06.085Z,25.36
2022-08-27T13:11:42.163Z,25.37
2022-08-27T13:14:31.082Z,25.33
2022-08-27T13:17:09.242Z,25.33
2022-08-27T13:20:07.146Z,25.35
2022-08-27T13:22:54.066Z,25.37
2022-08-27T13:25:49.091Z,25.33
2022-08-27T13:28:46.209Z,25.28
2022-08-27T13:31:41.188Z,25.26
2022-08-27T13:34:42.144Z,25.25
2022-08-27T13:37:42.172Z,25.20
2022-08-27T13:40:35.147Z,25.15
2022-08-27T13:43:16.171Z,25.16
2022-08-27T13:46:05.093Z,25.15
2022-08-27T13:48:40.178Z,25.19
2022-08-27T13:51:36.140Z,25.17
2022-08-27T13:54:23.096Z,25.12
2022-08-27T13:57:17.110Z,25.07
2022-08-27T13:59:50.180Z,25.06
2022-08-27T14:02:39.188Z,25.03
2022-08-27T14:05:26.232Z,25.02
2022-08-27T14:08:30.142Z,25.03
2022-08-27T14:11:17.128Z,24.99
2022-08-27T14:13:54.285Z,24.97
2022-08-27T14:16:42.129Z,24.91
2022-08-27T14:19:33.405Z,24.85
2022-08-27T14:22:24.142Z,24.78
2022-08-27T14:25:04.143Z,24.74
2022-08-27T14:27:54.270Z,24.68
2022-08-27T14:30:31.585Z,24.64
2022-08-27T14:33:18.140Z,24.57
2022-08-27T14:35:52.290Z,24.54
2022-08-27T14:38:41.045Z,24.48
2022-08-27T14:41:22.134Z,24.43
2022-08-27T14:44:09.153Z,24.39
2022-08-27T14:46:43.326Z,24.36
2022-08-27T14:49:36.150Z,24.33
2022-08-27T14:52:11.225Z,24.32
2022-08-27T14:54:58.154Z,24.31
2022-08-27T14:57:31.229Z,24.33
2022-08-27T15:00:20.862Z,24.35
2022-08-27T15:02:55.637Z,24.36
2022-08-27T15:05:43.032Z,24.36
2022-08-27T15:08:27.634Z,24.38
2022-08-27T15:11:23.170Z,24.41
2022-08-27T15:13:58.247Z,24.43
2022-08-27T15:16:47.172Z,24.44
2022-08-27T15:19:20.232Z,24.46
2022-08-27T15:22:16.958Z,24.45
2022-08-27T15:24:54.242Z,24.46
2022-08-27T15:27:42.158Z,24.41
2022-08-27T15:30:19.234Z,24.40
2022-08-27T15:33:06.165Z,24.38
2022-08-27T15:35:46.185Z,24.36
2022-08-27T15:38:40.177Z,24.31
2022-08-27T15:41:30.194Z,24.28
2022-08-27T15:44:11.164Z,24.26
2022-08-27T15:46:59.194Z,24.23
2022-08-27T15:49:32.267Z,24.23
2022-08-27T15:52:21.166Z,24.19
2022-08-27T15:55:03.148Z,24.20
2022-08-27T15:57:57.156Z,24.16
2022-08-27T16:00:45.180Z,24.13
2022-08-27T16:03:35.479Z,24.12
2022-08-27T16:06:30.154Z,24.09
2022-08-27T16:09:17.165Z,24.06
2022-08-27T16:11:50.223Z,24.03
2022-08-27T16:14:37.174Z,24.01
2022-08-27T16:17:10.302Z,23.98
2022-08-27T16:19:58.313Z,23.94
2022-08-27T16:22:31.272Z,23.89
2022-08-27T16:25:19.174Z,23.83
2022-08-27T16:27:54.317Z,23.76
2022-08-27T16:30:48.268Z,23.69
2022-08-27T16:33:42.190Z,23.62
2022-08-27T16:36:29.190Z,23.56
2022-08-27T16:39:09.179Z,23.51
2022-08-27T16:42:03.186Z,23.45
2022-08-27T16:44:50.169Z,23.38
2022-08-27T16:47:30.192Z,23.34
2022-08-27T16:50:35.179Z,23.25
2022-08-27T16:53:26.189Z,23.18
2022-08-27T16:56:13.985Z,23.10
2022-08-27T16:58:47.275Z,23.07
2022-08-27T17:01:34.254Z,23.04
2022-08-27T17:04:15.371Z,23.02
2022-08-27T17:07:05.219Z,22.97
2022-08-27T17:09:38.796Z,22.95
2022-08-27T17:12:31.204Z,22.89
2022-08-27T17:15:04.290Z,22.83
2022-08-27T17:17:51.186Z,22.77
2022-08-27T17:20:24.309Z,22.71
2022-08-27T17:23:13.212Z,22.66
2022-08-27T17:25:53.222Z,22.60
2022-08-27T17:28:47.219Z,22.52
2022-08-27T17:31:45.239Z,22.46
2022-08-27T17:34:32.226Z,22.40
2022-08-27T17:37:13.201Z,22.35
2022-08-27T17:40:00.336Z,22.28
2022-08-27T17:42:42.213Z,22.23
2022-08-27T17:45:36.247Z,22.17
2022-08-27T17:48:26.595Z,22.13
2022-08-27T17:51:00.316Z,22.10
2022-08-27T17:54:00.456Z,22.05
2022-08-27T17:56:39.445Z,21.98
2022-08-27T17:59:27.242Z,21.92
2022-08-27T18:02:07.236Z,21.85
2022-08-27T18:05:01.287Z,21.78
2022-08-27T18:07:49.227Z,21.72
2022-08-27T18:10:27.296Z,21.64
2022-08-27T18:13:14.237Z,21.60
2022-08-27T18:15:57.242Z,21.54
2022-08-27T18:18:45.251Z,21.48
2022-08-27T18:21:25.137Z,21.39
2022-08-27T18:24:12.248Z,21.35
2022-08-27T18:26:52.255Z,21.35
2022-08-27T18:29:40.252Z,21.29
2022-08-27T18:32:34.248Z,21.28
2022-08-27T18:35:25.261Z,21.24
2022-08-27T18:37:58.353Z,21.19
2022-08-27T18:40:50.273Z,21.13
2022-08-27T18:43:27.351Z,21.09
2022-08-27T18:46:14.292Z,21.02
2022-08-27T18:48:55.335Z,21.00
2022-08-27T18:51:52.522Z,20.96
2022-08-27T18:54:39.262Z,20.91
2022-08-27T18:57:13.091Z,20.88
2022-08-27T19:00:00.268Z,20.83
2022-08-27T19:02:34.536Z,20.81
2022-08-27T19:05:22.285Z,20.77
2022-08-27T19:08:02.267Z,20.73
2022-08-27T19:10:56.273Z,20.69
2022-08-27T19:13:43.262Z,20.60
2022-08-27T19:16:30.351Z,20.56
2022-08-27T19:19:27.294Z,20.52
2022-08-27T19:22:21.293Z,20.53
2022-08-27T19:25:08.287Z,20.53
2022-08-27T19:27:49.276Z,20.50
2022-08-27T19:30:43.286Z,20.48
2022-08-27T19:33:30.289Z,20.45
2022-08-27T19:36:04.426Z,20.42
2022-08-27T19:38:52.309Z,20.39
2022-08-27T19:41:27.994Z,20.34
2022-08-27T19:44:15.292Z,20.32
2022-08-27T19:46:48.376Z,20.31
2022-08-27T19:49:35.306Z,20.30
2022-08-27T19:52:08.751Z,20.27
2022-08-27T19:55:13.206Z,20.23
2022-08-27T19:57:47.396Z,20.21
2022-08-27T20:00:34.285Z,20.18
2022-08-27T20:03:07.464Z,20.12
2022-08-27T20:05:56.299Z,20.06
2022-08-27T20:08:29.417Z,19.99
2022-08-27T20:11:16.317Z,19.97
2022-08-27T20:13:56.295Z,19.93
2022-08-27T20:16:43.360Z,19.91
2022-08-27T20:19:16.413Z,19.90
2022-08-27T20:22:03.322Z,19.88
2022-08-27T20:24:43.335Z,19.85
2022-08-27T20:27:30.338Z,19.79
2022-08-27T20:30:04.736Z,19.77
2022-08-27T20:32:53.305Z,19.75
2022-08-27T20:35:28.424Z,19.73
2022-08-27T20:38:15.321Z,19.72
2022-08-27T20:40:48.409Z,19.74
2022-08-27T20:43:35.330Z,19.75
2022-08-27T20:46:10.999Z,19.75
2022-08-27T20:48:59.331Z,19.76
2022-08-27T20:51:56.793Z,19.77
2022-08-27T20:54:54.332Z,19.72
2022-08-27T20:57:41.330Z,19.71
2022-08-27T21:00:21.568Z,19.71
2022-08-27T21:03:08.331Z,19.72
2022-08-27T21:05:47.171Z,19.73
2022-08-27T21:08:34.347Z,19.73
2022-08-27T21:11:07.415Z,19.74
2022-08-27T21:13:56.617Z,19.74
2022-08-27T21:16:39.363Z,19.74
2022-08-27T21:19:33.384Z,19.72
2022-08-27T21:22:27.566Z,19.67
2022-08-27T21:25:16.331Z,19.64
2022-08-27T21:27:49.467Z,19.59
2022-08-27T21:30:43.336Z,19.56
2022-08-27T21:33:37.847Z,19.55
2022-08-27T21:36:26.362Z,19.53
2022-08-27T21:38:59.540Z,19.51
2022-08-27T21:41:46.360Z,19.50
2022-08-27T21:44:29.348Z,19.49
2022-08-27T21:47:24.372Z,19.46
2022-08-27T21:50:13.374Z,19.40
2022-08-27T21:52:46.495Z,19.36
2022-08-27T21:55:33.368Z,19.33
2022-08-27T21:58:06.454Z,19.33
2022-08-27T22:00:56.471Z,19.32
2022-08-27T22:03:31.473Z,19.32
2022-08-27T22:06:19.399Z,19.32
2022-08-27T22:08:52.452Z,19.32
2022-08-27T22:11:39.391Z,19.32
2022-08-27T22:14:12.485Z,19.32
2022-08-27T22:16:59.458Z,19.28
2022-08-27T22:19:39.404Z,19.26
2022-08-27T22:22:30.805Z,19.26
2022-08-27T22:25:11.402Z,19.23
2022-08-27T22:27:59.385Z,19.23
2022-08-27T22:30:39.374Z,19.22
2022-08-27T22:33:26.406Z,19.21
2022-08-27T22:36:06.394Z,19.20
2022-08-27T22:39:04.112Z,19.18
2022-08-27T22:41:51.453Z,19.17
2022-08-27T22:44:24.501Z,19.16
2022-08-27T22:47:11.405Z,19.10
2022-08-27T22:49:44.540Z,19.07
2022-08-27T22:52:31.405Z,19.04
2022-08-27T22:55:04.475Z,19.03
2022-08-27T22:57:52.417Z,19.01
2022-08-27T23:00:36.412Z,18.99
2022-08-27T23:03:23.413Z,18.95
2022-08-27T23:06:04.472Z,18.92
2022-08-27T23:08:51.401Z,18.90
2022-08-27T23:11:31.403Z,18.89
2022-08-27T23:14:25.416Z,18.87
2022-08-27T23:17:12.430Z,18.88
2022-08-27T23:19:52.409Z,18.86
2022-08-27T23:22:39.402Z,18.83
2022-08-27T23:25:40.575Z,18.81
2022-08-27T23:28:29.411Z,18.76
2022-08-27T23:31:02.565Z,18.72
2022-08-27T23:33:49.413Z,18.67
2022-08-27T23:36:29.451Z,18.65
2022-08-27T23:39:17.425Z,18.61
2022-08-27T23:41:51.542Z,18.57
2022-08-27T23:44:38.429Z,18.50
2022-08-27T23:47:11.497Z,18.49
2022-08-27T23:49:58.433Z,18.45
2022-08-27T23:52:38.424Z,18.41
2022-08-27T23:55:32.461Z,18.37
2022-08-27T23:58:19.450Z,18.35
